This is the latest recevied weather packets stored in our database for station/object DJ3AN. If no packets are shown the sender has not sent any weather packets the latest 1 day(s).
| Time | Temp. | Humidity | Pressure | Rain* | Wind** | Luminosity | Snow |
|---|---|---|---|---|---|---|---|
| 1778082006 | 10.56° C | 94% | 1009.2 hPa | 1.02 mm | - | - | - |
| 1778081706 | 10.56° C | 93% | 1009.1 hPa | 1.02 mm | - | - | - |
| 1778081106 | 10.56° C | 93% | 1009.2 hPa | 1.27 mm | - | - | - |
| 1778080806 | 10.56° C | 93% | 1009.2 hPa | 1.02 mm | - | - | - |
| 1778078706 | 10.56° C | 93% | 1009 hPa | 1.02 mm | - | - | - |
| 1778076905 | 10.56° C | 92% | 1009 hPa | 1.02 mm | - | - | - |
| 1778069706 | 11.11° C | 89% | 1008.7 hPa | 1.27 mm | - | - | - |
| 1778069406 | 11.11° C | 89% | 1008.7 hPa | 1.27 mm | - | - | - |
| 1778055006 | 11.67° C | 73% | 1007.5 hPa | 0 mm | - | - | - |
| 1778054706 | 11.67° C | 73% | 1007.6 hPa | 0 mm | - | - | - |
| 1778054406 | 11.11° C | 74% | 1007.6 hPa | 0 mm | - | - | - |
| 1778054106 | 11.11° C | 74% | 1007.6 hPa | 0 mm | - | - | - |
| 1778053807 | 11.11° C | 73% | 1007.5 hPa | 0 mm | - | - | - |
| 1778053506 | 11.11° C | 74% | 1007.5 hPa | 0 mm | - | - | - |
| 1778053206 | 11.11° C | 74% | 1007.5 hPa | 0 mm | - | - | - |
| 1778052606 | 11.11° C | 76% | 1007.4 hPa | 0 mm | - | - | - |
| 1778052306 | 10.56° C | 77% | 1007.4 hPa | 0 mm | - | - | - |
| 1778051706 | 10.56° C | 76% | 1007.5 hPa | 0 mm | - | - | - |
| 1778048705 | 10.56° C | 79% | 1007.4 hPa | 0 mm | - | - | - |
| 1778047505 | 10.56° C | 81% | 1007.4 hPa | 0 mm | - | - | - |
| 1778046905 | 10.56° C | 81% | 1007.4 hPa | 0 mm | - | - | - |
| 1778046607 | 10.56° C | 81% | 1007.4 hPa | 0 mm | - | - | - |
| 1778046305 | 10.56° C | 81% | 1007.4 hPa | 0 mm | - | - | - |
| 1778046005 | 10.56° C | 83% | 1007.4 hPa | 0 mm | - | - | - |
| 1778043906 | 10.56° C | 83% | 1007.4 hPa | 0 mm | - | - | - |
* Rain latest hour (hover to see other rain measurements)
** Current wind speed in m/s (hover to see current wind gust speed)